sensor_id;sensor_type;location;lat;lon;timestamp;temperature;humidity
18502;DHT22;68437;52.236;5.710;2023-09-30T00:01:57;11.70;99.90
18502;DHT22;68437;52.236;5.710;2023-09-30T00:04:24;11.70;99.90
18502;DHT22;68437;52.236;5.710;2023-09-30T00:06:52;11.70;99.90
18502;DHT22;68437;52.236;5.710;2023-09-30T00:09:21;11.70;99.90
18502;DHT22;68437;52.236;5.710;2023-09-30T00:11:48;11.70;99.90
18502;DHT22;68437;52.236;5.710;2023-09-30T00:14:15;11.80;99.90
18502;DHT22;68437;52.236;5.710;2023-09-30T00:16:42;11.80;99.90
18502;DHT22;68437;52.236;5.710;2023-09-30T00:19:09;11.80;99.90
18502;DHT22;68437;52.236;5.710;2023-09-30T00:21:36;11.70;99.90
18502;DHT22;68437;52.236;5.710;2023-09-30T00:24:03;11.80;99.90
18502;DHT22;68437;52.236;5.710;2023-09-30T00:26:32;11.70;99.90
18502;DHT22;68437;52.236;5.710;2023-09-30T00:28:59;11.70;99.90
18502;DHT22;68437;52.236;5.710;2023-09-30T00:31:25;11.70;99.90
18502;DHT22;68437;52.236;5.710;2023-09-30T00:33:52;11.70;99.90
18502;DHT22;68437;52.236;5.710;2023-09-30T00:36:20;11.70;99.90
18502;DHT22;68437;52.236;5.710;2023-09-30T00:38:47;11.80;99.90
18502;DHT22;68437;52.236;5.710;2023-09-30T00:41:14;11.70;99.90
18502;DHT22;68437;52.236;5.710;2023-09-30T00:43:42;11.80;99.90
18502;DHT22;68437;52.236;5.710;2023-09-30T00:46:17;11.70;99.90
18502;DHT22;68437;52.236;5.710;2023-09-30T00:48:47;11.60;99.90
18502;DHT22;68437;52.236;5.710;2023-09-30T00:51:14;11.60;99.90
18502;DHT22;68437;52.236;5.710;2023-09-30T00:53:41;11.60;99.90
18502;DHT22;68437;52.236;5.710;2023-09-30T00:56:09;11.50;99.90
18502;DHT22;68437;52.236;5.710;2023-09-30T00:58:38;11.50;99.90
18502;DHT22;68437;52.236;5.710;2023-09-30T01:01:06;11.50;99.90
18502;DHT22;68437;52.236;5.710;2023-09-30T01:03:34;11.50;99.90
18502;DHT22;68437;52.236;5.710;2023-09-30T01:06:01;11.50;99.90
18502;DHT22;68437;52.236;5.710;2023-09-30T01:08:27;11.40;99.90
18502;DHT22;68437;52.236;5.710;2023-09-30T01:10:55;11.40;99.90
18502;DHT22;68437;52.236;5.710;2023-09-30T01:13:22;11.40;99.90
18502;DHT22;68437;52.236;5.710;2023-09-30T01:15:49;11.40;99.90
18502;DHT22;68437;52.236;5.710;2023-09-30T01:18:17;11.40;99.90
18502;DHT22;68437;52.236;5.710;2023-09-30T01:20:44;11.40;99.90
18502;DHT22;68437;52.236;5.710;2023-09-30T01:23:12;11.40;99.90
18502;DHT22;68437;52.236;5.710;2023-09-30T01:25:39;11.40;99.90
18502;DHT22;68437;52.236;5.710;2023-09-30T01:28:08;11.30;99.90
18502;DHT22;68437;52.236;5.710;2023-09-30T01:30:35;11.30;99.90
18502;DHT22;68437;52.236;5.710;2023-09-30T01:33:03;11.20;99.90
18502;DHT22;68437;52.236;5.710;2023-09-30T01:35:30;11.30;99.90
18502;DHT22;68437;52.236;5.710;2023-09-30T01:37:56;11.20;99.90
18502;DHT22;68437;52.236;5.710;2023-09-30T01:40:25;11.30;99.90
18502;DHT22;68437;52.236;5.710;2023-09-30T01:42:52;11.20;99.90
18502;DHT22;68437;52.236;5.710;2023-09-30T01:45:17;11.20;99.90
18502;DHT22;68437;52.236;5.710;2023-09-30T01:47:44;11.30;99.90
18502;DHT22;68437;52.236;5.710;2023-09-30T01:50:11;11.20;99.90
18502;DHT22;68437;52.236;5.710;2023-09-30T01:52:38;11.20;99.90
18502;DHT22;68437;52.236;5.710;2023-09-30T01:55:05;11.20;99.90
18502;DHT22;68437;52.236;5.710;2023-09-30T01:57:33;11.20;99.90
18502;DHT22;68437;52.236;5.710;2023-09-30T02:00:00;11.20;99.90
18502;DHT22;68437;52.236;5.710;2023-09-30T02:02:27;11.10;99.90
18502;DHT22;68437;52.236;5.710;2023-09-30T02:04:54;11.10;99.90
18502;DHT22;68437;52.236;5.710;2023-09-30T02:07:21;11.20;99.90
18502;DHT22;68437;52.236;5.710;2023-09-30T02:09:47;11.10;99.90
18502;DHT22;68437;52.236;5.710;2023-09-30T02:12:15;11.10;99.90
18502;DHT22;68437;52.236;5.710;2023-09-30T02:14:43;11.10;99.90
18502;DHT22;68437;52.236;5.710;2023-09-30T02:17:12;11.10;99.90
18502;DHT22;68437;52.236;5.710;2023-09-30T02:19:38;11.10;99.90
18502;DHT22;68437;52.236;5.710;2023-09-30T02:22:05;11.10;99.90
18502;DHT22;68437;52.236;5.710;2023-09-30T02:24:32;11.10;99.90
18502;DHT22;68437;52.236;5.710;2023-09-30T02:26:59;11.10;99.90
18502;DHT22;68437;52.236;5.710;2023-09-30T02:29:26;11.00;99.90
18502;DHT22;68437;52.236;5.710;2023-09-30T02:31:54;11.00;99.90
18502;DHT22;68437;52.236;5.710;2023-09-30T02:34:21;11.10;99.90
18502;DHT22;68437;52.236;5.710;2023-09-30T02:36:49;11.10;99.90
18502;DHT22;68437;52.236;5.710;2023-09-30T02:39:17;11.10;99.90
18502;DHT22;68437;52.236;5.710;2023-09-30T02:41:44;11.10;99.90
18502;DHT22;68437;52.236;5.710;2023-09-30T02:44:10;11.00;99.90
18502;DHT22;68437;52.236;5.710;2023-09-30T02:46:38;11.00;99.90
18502;DHT22;68437;52.236;5.710;2023-09-30T02:49:06;11.00;99.90
18502;DHT22;68437;52.236;5.710;2023-09-30T02:51:33;11.00;99.90
18502;DHT22;68437;52.236;5.710;2023-09-30T02:54:00;10.90;99.90
18502;DHT22;68437;52.236;5.710;2023-09-30T02:56:27;10.90;99.90
18502;DHT22;68437;52.236;5.710;2023-09-30T02:58:55;10.80;99.90
18502;DHT22;68437;52.236;5.710;2023-09-30T03:01:23;10.90;99.90
18502;DHT22;68437;52.236;5.710;2023-09-30T03:03:50;10.90;99.90
18502;DHT22;68437;52.236;5.710;2023-09-30T03:06:18;10.90;99.90
18502;DHT22;68437;52.236;5.710;2023-09-30T03:08:45;10.90;99.90
18502;DHT22;68437;52.236;5.710;2023-09-30T03:11:12;10.90;99.90
18502;DHT22;68437;52.236;5.710;2023-09-30T03:13:39;11.00;99.90
18502;DHT22;68437;52.236;5.710;2023-09-30T03:16:08;10.90;99.90
18502;DHT22;68437;52.236;5.710;2023-09-30T03:18:34;10.90;99.90
18502;DHT22;68437;52.236;5.710;2023-09-30T03:21:02;10.80;99.90
18502;DHT22;68437;52.236;5.710;2023-09-30T03:23:35;10.90;99.90
18502;DHT22;68437;52.236;5.710;2023-09-30T03:26:04;10.90;99.90
18502;DHT22;68437;52.236;5.710;2023-09-30T03:28:33;10.90;99.90
18502;DHT22;68437;52.236;5.710;2023-09-30T03:31:00;10.90;99.90
18502;DHT22;68437;52.236;5.710;2023-09-30T03:33:29;10.90;99.90
18502;DHT22;68437;52.236;5.710;2023-09-30T03:35:56;10.90;99.90
18502;DHT22;68437;52.236;5.710;2023-09-30T03:38:23;10.90;99.90
18502;DHT22;68437;52.236;5.710;2023-09-30T03:40:52;10.90;99.90
18502;DHT22;68437;52.236;5.710;2023-09-30T03:43:20;10.90;99.90
18502;DHT22;68437;52.236;5.710;2023-09-30T03:45:48;10.90;99.90
18502;DHT22;68437;52.236;5.710;2023-09-30T03:48:15;11.00;99.90
18502;DHT22;68437;52.236;5.710;2023-09-30T03:50:44;11.10;99.90
18502;DHT22;68437;52.236;5.710;2023-09-30T03:53:11;11.10;99.90
18502;DHT22;68437;52.236;5.710;2023-09-30T03:55:38;11.10;99.90
18502;DHT22;68437;52.236;5.710;2023-09-30T03:58:06;11.10;99.90
18502;DHT22;68437;52.236;5.710;2023-09-30T04:00:33;11.00;99.90
18502;DHT22;68437;52.236;5.710;2023-09-30T04:03:01;11.10;99.90
18502;DHT22;68437;52.236;5.710;2023-09-30T04:05:28;11.10;99.90
18502;DHT22;68437;52.236;5.710;2023-09-30T04:07:57;11.20;99.90
18502;DHT22;68437;52.236;5.710;2023-09-30T04:10:24;11.20;99.90
18502;DHT22;68437;52.236;5.710;2023-09-30T04:12:51;11.20;99.90
18502;DHT22;68437;52.236;5.710;2023-09-30T04:15:20;11.20;99.90
18502;DHT22;68437;52.236;5.710;2023-09-30T04:17:47;11.10;99.90
18502;DHT22;68437;52.236;5.710;2023-09-30T04:20:14;11.20;99.90
18502;DHT22;68437;52.236;5.710;2023-09-30T04:22:47;11.10;99.90
18502;DHT22;68437;52.236;5.710;2023-09-30T04:25:14;11.20;99.90
18502;DHT22;68437;52.236;5.710;2023-09-30T04:27:42;11.20;99.90
18502;DHT22;68437;52.236;5.710;2023-09-30T04:30:10;11.20;99.90
18502;DHT22;68437;52.236;5.710;2023-09-30T04:32:38;11.20;99.90
18502;DHT22;68437;52.236;5.710;2023-09-30T04:35:06;11.20;99.90
18502;DHT22;68437;52.236;5.710;2023-09-30T04:37:34;11.10;99.90
18502;DHT22;68437;52.236;5.710;2023-09-30T04:40:03;11.10;99.90
18502;DHT22;68437;52.236;5.710;2023-09-30T04:42:33;11.10;99.90
18502;DHT22;68437;52.236;5.710;2023-09-30T04:45:02;11.10;99.90
18502;DHT22;68437;52.236;5.710;2023-09-30T04:47:32;11.10;99.90
18502;DHT22;68437;52.236;5.710;2023-09-30T04:50:00;11.10;99.90
18502;DHT22;68437;52.236;5.710;2023-09-30T04:52:30;11.10;99.90
18502;DHT22;68437;52.236;5.710;2023-09-30T04:54:57;11.00;99.90
18502;DHT22;68437;52.236;5.710;2023-09-30T04:57:25;11.00;99.90
18502;DHT22;68437;52.236;5.710;2023-09-30T04:59:52;11.10;99.90
18502;DHT22;68437;52.236;5.710;2023-09-30T05:02:19;11.00;99.90
18502;DHT22;68437;52.236;5.710;2023-09-30T05:04:46;11.00;99.90
18502;DHT22;68437;52.236;5.710;2023-09-30T05:07:14;11.00;99.90
18502;DHT22;68437;52.236;5.710;2023-09-30T05:09:41;11.00;99.90
18502;DHT22;68437;52.236;5.710;2023-09-30T05:12:08;11.10;99.90
18502;DHT22;68437;52.236;5.710;2023-09-30T05:14:36;11.10;99.90
18502;DHT22;68437;52.236;5.710;2023-09-30T05:17:04;11.10;99.90
18502;DHT22;68437;52.236;5.710;2023-09-30T05:19:31;11.00;99.90
18502;DHT22;68437;52.236;5.710;2023-09-30T05:21:58;11.00;99.90
18502;DHT22;68437;52.236;5.710;2023-09-30T05:24:27;10.90;99.90
18502;DHT22;68437;52.236;5.710;2023-09-30T05:26:54;10.90;99.90
18502;DHT22;68437;52.236;5.710;2023-09-30T05:29:21;11.00;99.90
18502;DHT22;68437;52.236;5.710;2023-09-30T05:31:48;11.00;99.90
18502;DHT22;68437;52.236;5.710;2023-09-30T05:34:15;11.00;99.90
18502;DHT22;68437;52.236;5.710;2023-09-30T05:36:41;10.90;99.90
18502;DHT22;68437;52.236;5.710;2023-09-30T05:39:09;11.00;99.90
18502;DHT22;68437;52.236;5.710;2023-09-30T05:41:39;11.00;99.90
18502;DHT22;68437;52.236;5.710;2023-09-30T05:44:07;11.00;99.90
18502;DHT22;68437;52.236;5.710;2023-09-30T05:46:34;11.00;99.90
18502;DHT22;68437;52.236;5.710;2023-09-30T05:49:01;11.00;99.90
18502;DHT22;68437;52.236;5.710;2023-09-30T05:51:35;11.00;99.90
18502;DHT22;68437;52.236;5.710;2023-09-30T05:54:02;11.00;99.90
18502;DHT22;68437;52.236;5.710;2023-09-30T05:56:30;11.00;99.90
18502;DHT22;68437;52.236;5.710;2023-09-30T05:58:59;11.00;99.90
18502;DHT22;68437;52.236;5.710;2023-09-30T06:01:26;10.90;99.90
18502;DHT22;68437;52.236;5.710;2023-09-30T06:03:53;11.00;99.90
18502;DHT22;68437;52.236;5.710;2023-09-30T06:06:20;11.00;99.90
18502;DHT22;68437;52.236;5.710;2023-09-30T06:08:49;11.00;99.90
18502;DHT22;68437;52.236;5.710;2023-09-30T06:11:16;11.00;99.90
18502;DHT22;68437;52.236;5.710;2023-09-30T06:13:44;11.10;99.90
18502;DHT22;68437;52.236;5.710;2023-09-30T06:16:13;11.00;99.90
18502;DHT22;68437;52.236;5.710;2023-09-30T06:18:41;11.00;99.90
18502;DHT22;68437;52.236;5.710;2023-09-30T06:21:10;11.00;99.90
18502;DHT22;68437;52.236;5.710;2023-09-30T06:23:37;11.00;99.90
18502;DHT22;68437;52.236;5.710;2023-09-30T06:26:06;11.10;99.90
18502;DHT22;68437;52.236;5.710;2023-09-30T06:28:32;11.20;99.90
18502;DHT22;68437;52.236;5.710;2023-09-30T06:31:06;11.20;99.90
18502;DHT22;68437;52.236;5.710;2023-09-30T06:33:34;11.30;99.90
18502;DHT22;68437;52.236;5.710;2023-09-30T06:36:02;11.30;99.90
18502;DHT22;68437;52.236;5.710;2023-09-30T06:38:29;11.40;99.90
18502;DHT22;68437;52.236;5.710;2023-09-30T06:40:56;11.40;99.90
18502;DHT22;68437;52.236;5.710;2023-09-30T06:43:23;11.40;99.90
18502;DHT22;68437;52.236;5.710;2023-09-30T06:45:49;11.50;99.90
18502;DHT22;68437;52.236;5.710;2023-09-30T06:48:16;11.50;99.90
18502;DHT22;68437;52.236;5.710;2023-09-30T06:50:46;11.60;99.90
18502;DHT22;68437;52.236;5.710;2023-09-30T06:53:14;11.60;99.90
18502;DHT22;68437;52.236;5.710;2023-09-30T06:55:41;11.60;99.90
18502;DHT22;68437;52.236;5.710;2023-09-30T06:58:08;11.70;99.90
18502;DHT22;68437;52.236;5.710;2023-09-30T07:00:36;11.80;99.90
18502;DHT22;68437;52.236;5.710;2023-09-30T07:03:03;11.90;99.90
18502;DHT22;68437;52.236;5.710;2023-09-30T07:05:31;12.00;99.90
18502;DHT22;68437;52.236;5.710;2023-09-30T07:07:59;12.00;99.90
18502;DHT22;68437;52.236;5.710;2023-09-30T07:10:26;12.10;99.90
18502;DHT22;68437;52.236;5.710;2023-09-30T07:12:54;12.20;99.90
18502;DHT22;68437;52.236;5.710;2023-09-30T07:15:21;12.20;99.90
18502;DHT22;68437;52.236;5.710;2023-09-30T07:17:51;12.30;99.90
18502;DHT22;68437;52.236;5.710;2023-09-30T07:20:18;12.40;99.90
18502;DHT22;68437;52.236;5.710;2023-09-30T07:22:46;12.50;99.90
18502;DHT22;68437;52.236;5.710;2023-09-30T07:25:16;12.60;99.90
18502;DHT22;68437;52.236;5.710;2023-09-30T07:27:44;12.60;99.90
18502;DHT22;68437;52.236;5.710;2023-09-30T07:30:13;12.70;99.90
18502;DHT22;68437;52.236;5.710;2023-09-30T07:32:41;12.80;99.90
18502;DHT22;68437;52.236;5.710;2023-09-30T07:35:09;12.90;99.90
18502;DHT22;68437;52.236;5.710;2023-09-30T07:37:35;13.00;99.90
18502;DHT22;68437;52.236;5.710;2023-09-30T07:40:03;13.00;99.90
18502;DHT22;68437;52.236;5.710;2023-09-30T07:42:32;13.20;99.90
18502;DHT22;68437;52.236;5.710;2023-09-30T07:45:00;13.30;99.90
18502;DHT22;68437;52.236;5.710;2023-09-30T07:47:29;13.30;99.90
18502;DHT22;68437;52.236;5.710;2023-09-30T07:49:59;13.40;99.90
18502;DHT22;68437;52.236;5.710;2023-09-30T07:52:26;13.40;99.90
18502;DHT22;68437;52.236;5.710;2023-09-30T07:54:53;13.50;99.90
18502;DHT22;68437;52.236;5.710;2023-09-30T07:57:19;13.50;99.90
18502;DHT22;68437;52.236;5.710;2023-09-30T07:59:48;13.60;99.90
18502;DHT22;68437;52.236;5.710;2023-09-30T08:02:15;13.70;99.90
18502;DHT22;68437;52.236;5.710;2023-09-30T08:04:43;13.80;99.90
18502;DHT22;68437;52.236;5.710;2023-09-30T08:07:10;14.00;99.90
18502;DHT22;68437;52.236;5.710;2023-09-30T08:09:37;14.10;99.90
18502;DHT22;68437;52.236;5.710;2023-09-30T08:12:04;14.20;99.90
18502;DHT22;68437;52.236;5.710;2023-09-30T08:14:32;14.40;99.90
18502;DHT22;68437;52.236;5.710;2023-09-30T08:17:00;14.50;99.90
18502;DHT22;68437;52.236;5.710;2023-09-30T08:19:28;14.60;99.90
18502;DHT22;68437;52.236;5.710;2023-09-30T08:21:55;14.70;99.90
18502;DHT22;68437;52.236;5.710;2023-09-30T08:24:21;14.70;99.90
18502;DHT22;68437;52.236;5.710;2023-09-30T08:26:48;14.70;99.90
18502;DHT22;68437;52.236;5.710;2023-09-30T08:29:17;14.90;99.90
18502;DHT22;68437;52.236;5.710;2023-09-30T08:31:44;15.00;99.90
18502;DHT22;68437;52.236;5.710;2023-09-30T08:34:12;15.10;99.90
18502;DHT22;68437;52.236;5.710;2023-09-30T08:36:40;15.30;99.90
18502;DHT22;68437;52.236;5.710;2023-09-30T08:39:07;15.30;99.90
18502;DHT22;68437;52.236;5.710;2023-09-30T08:41:36;15.40;99.90
18502;DHT22;68437;52.236;5.710;2023-09-30T08:44:04;15.50;99.90
18502;DHT22;68437;52.236;5.710;2023-09-30T08:46:31;15.60;99.90
18502;DHT22;68437;52.236;5.710;2023-09-30T08:49:01;15.70;99.90
18502;DHT22;68437;52.236;5.710;2023-09-30T08:51:30;15.70;99.90
18502;DHT22;68437;52.236;5.710;2023-09-30T08:53:58;15.80;99.90
18502;DHT22;68437;52.236;5.710;2023-09-30T08:56:27;15.90;99.90
18502;DHT22;68437;52.236;5.710;2023-09-30T08:58:57;16.00;99.90
18502;DHT22;68437;52.236;5.710;2023-09-30T09:01:24;16.10;99.90
18502;DHT22;68437;52.236;5.710;2023-09-30T09:03:51;16.20;99.90
18502;DHT22;68437;52.236;5.710;2023-09-30T09:06:19;16.30;99.90
18502;DHT22;68437;52.236;5.710;2023-09-30T09:08:48;16.30;99.90
18502;DHT22;68437;52.236;5.710;2023-09-30T09:11:15;16.40;99.90
18502;DHT22;68437;52.236;5.710;2023-09-30T09:13:47;16.40;99.90
18502;DHT22;68437;52.236;5.710;2023-09-30T09:16:15;16.50;99.90
18502;DHT22;68437;52.236;5.710;2023-09-30T09:18:43;16.50;99.90
18502;DHT22;68437;52.236;5.710;2023-09-30T09:21:11;16.60;99.90
18502;DHT22;68437;52.236;5.710;2023-09-30T09:23:42;16.70;99.90
18502;DHT22;68437;52.236;5.710;2023-09-30T09:26:11;16.80;99.90
18502;DHT22;68437;52.236;5.710;2023-09-30T09:28:39;16.80;99.90
18502;DHT22;68437;52.236;5.710;2023-09-30T09:31:20;16.90;99.90
18502;DHT22;68437;52.236;5.710;2023-09-30T09:33:48;16.90;99.90
18502;DHT22;68437;52.236;5.710;2023-09-30T09:36:15;16.90;99.90
18502;DHT22;68437;52.236;5.710;2023-09-30T09:38:46;17.00;99.90
18502;DHT22;68437;52.236;5.710;2023-09-30T09:41:16;17.10;99.90
18502;DHT22;68437;52.236;5.710;2023-09-30T09:43:44;17.30;99.90
18502;DHT22;68437;52.236;5.710;2023-09-30T09:46:11;17.40;99.90
18502;DHT22;68437;52.236;5.710;2023-09-30T09:48:39;17.60;99.90
18502;DHT22;68437;52.236;5.710;2023-09-30T09:51:08;17.70;99.90
18502;DHT22;68437;52.236;5.710;2023-09-30T09:53:39;17.90;99.90
18502;DHT22;68437;52.236;5.710;2023-09-30T09:56:08;18.00;99.90
18502;DHT22;68437;52.236;5.710;2023-09-30T09:58:40;18.10;99.90
18502;DHT22;68437;52.236;5.710;2023-09-30T10:01:09;18.20;99.90
18502;DHT22;68437;52.236;5.710;2023-09-30T10:03:37;18.30;99.90
18502;DHT22;68437;52.236;5.710;2023-09-30T10:06:05;18.50;99.90
18502;DHT22;68437;52.236;5.710;2023-09-30T10:08:37;18.70;99.90
18502;DHT22;68437;52.236;5.710;2023-09-30T10:11:06;18.80;99.90
18502;DHT22;68437;52.236;5.710;2023-09-30T10:13:56;18.80;99.90
18502;DHT22;68437;52.236;5.710;2023-09-30T10:16:47;18.70;99.90
18502;DHT22;68437;52.236;5.710;2023-09-30T10:19:15;18.80;99.90
18502;DHT22;68437;52.236;5.710;2023-09-30T10:24:43;18.70;99.90
18502;DHT22;68437;52.236;5.710;2023-09-30T10:27:31;18.60;99.90
18502;DHT22;68437;52.236;5.710;2023-09-30T10:30:09;18.60;99.90
18502;DHT22;68437;52.236;5.710;2023-09-30T10:33:13;18.80;99.90
18502;DHT22;68437;52.236;5.710;2023-09-30T10:35:52;18.70;99.90
18502;DHT22;68437;52.236;5.710;2023-09-30T10:38:38;18.50;99.90
18502;DHT22;68437;52.236;5.710;2023-09-30T10:41:09;18.50;99.90
18502;DHT22;68437;52.236;5.710;2023-09-30T10:43:38;18.60;99.90
18502;DHT22;68437;52.236;5.710;2023-09-30T10:46:30;18.90;99.90
18502;DHT22;68437;52.236;5.710;2023-09-30T10:49:15;19.10;99.90
18502;DHT22;68437;52.236;5.710;2023-09-30T10:51:44;19.30;99.90
18502;DHT22;68437;52.236;5.710;2023-09-30T10:54:12;19.40;99.90
18502;DHT22;68437;52.236;5.710;2023-09-30T10:56:39;19.50;99.90
18502;DHT22;68437;52.236;5.710;2023-09-30T10:59:06;19.30;99.90
18502;DHT22;68437;52.236;5.710;2023-09-30T11:01:36;19.30;99.90
18502;DHT22;68437;52.236;5.710;2023-09-30T11:04:04;19.40;99.90
18502;DHT22;68437;52.236;5.710;2023-09-30T11:06:32;19.70;99.90
18502;DHT22;68437;52.236;5.710;2023-09-30T11:09:00;19.90;99.90
18502;DHT22;68437;52.236;5.710;2023-09-30T11:11:35;20.10;99.90
18502;DHT22;68437;52.236;5.710;2023-09-30T11:14:03;20.20;99.90
18502;DHT22;68437;52.236;5.710;2023-09-30T11:16:41;20.30;99.90
18502;DHT22;68437;52.236;5.710;2023-09-30T11:19:09;20.20;99.90
18502;DHT22;68437;52.236;5.710;2023-09-30T11:21:36;20.10;99.90
18502;DHT22;68437;52.236;5.710;2023-09-30T11:24:02;20.00;99.90
18502;DHT22;68437;52.236;5.710;2023-09-30T11:26:29;20.00;99.90
18502;DHT22;68437;52.236;5.710;2023-09-30T11:29:05;20.20;99.90
18502;DHT22;68437;52.236;5.710;2023-09-30T11:31:31;20.40;99.90
18502;DHT22;68437;52.236;5.710;2023-09-30T11:34:01;20.50;99.90
18502;DHT22;68437;52.236;5.710;2023-09-30T11:36:30;20.50;99.90
18502;DHT22;68437;52.236;5.710;2023-09-30T11:38:57;20.30;99.90
18502;DHT22;68437;52.236;5.710;2023-09-30T11:41:34;20.30;99.90
18502;DHT22;68437;52.236;5.710;2023-09-30T11:44:04;20.20;99.90
18502;DHT22;68437;52.236;5.710;2023-09-30T11:46:47;19.90;99.90
18502;DHT22;68437;52.236;5.710;2023-09-30T11:49:26;19.60;99.90
18502;DHT22;68437;52.236;5.710;2023-09-30T11:51:53;19.30;99.90
18502;DHT22;68437;52.236;5.710;2023-09-30T11:54:20;19.10;99.90
18502;DHT22;68437;52.236;5.710;2023-09-30T11:56:48;19.20;99.90
18502;DHT22;68437;52.236;5.710;2023-09-30T11:59:16;19.50;99.90
18502;DHT22;68437;52.236;5.710;2023-09-30T12:01:45;19.60;99.90
18502;DHT22;68437;52.236;5.710;2023-09-30T12:04:14;19.40;99.90
18502;DHT22;68437;52.236;5.710;2023-09-30T12:06:44;19.60;99.90
18502;DHT22;68437;52.236;5.710;2023-09-30T12:09:11;19.70;99.90
18502;DHT22;68437;52.236;5.710;2023-09-30T12:11:40;19.90;99.90
18502;DHT22;68437;52.236;5.710;2023-09-30T12:14:10;20.10;99.90
18502;DHT22;68437;52.236;5.710;2023-09-30T12:16:37;20.50;99.90
18502;DHT22;68437;52.236;5.710;2023-09-30T12:19:04;20.70;99.90
18502;DHT22;68437;52.236;5.710;2023-09-30T12:21:32;20.90;99.90
18502;DHT22;68437;52.236;5.710;2023-09-30T12:24:01;21.10;99.90
18502;DHT22;68437;52.236;5.710;2023-09-30T12:26:29;21.20;99.90
18502;DHT22;68437;52.236;5.710;2023-09-30T12:28:56;21.20;99.90
18502;DHT22;68437;52.236;5.710;2023-09-30T12:31:23;21.00;99.90
18502;DHT22;68437;52.236;5.710;2023-09-30T12:33:50;20.90;99.90
18502;DHT22;68437;52.236;5.710;2023-09-30T12:36:17;20.60;99.90
18502;DHT22;68437;52.236;5.710;2023-09-30T12:38:44;20.30;99.90
18502;DHT22;68437;52.236;5.710;2023-09-30T12:41:13;20.00;99.90
18502;DHT22;68437;52.236;5.710;2023-09-30T12:43:40;19.80;99.90
18502;DHT22;68437;52.236;5.710;2023-09-30T12:46:08;19.80;99.90
18502;DHT22;68437;52.236;5.710;2023-09-30T12:48:35;19.70;99.90
18502;DHT22;68437;52.236;5.710;2023-09-30T12:51:04;19.70;99.90
18502;DHT22;68437;52.236;5.710;2023-09-30T12:53:32;19.60;99.90
18502;DHT22;68437;52.236;5.710;2023-09-30T12:56:00;19.50;99.90
18502;DHT22;68437;52.236;5.710;2023-09-30T12:58:28;19.40;99.90
18502;DHT22;68437;52.236;5.710;2023-09-30T13:00:55;19.20;99.90
18502;DHT22;68437;52.236;5.710;2023-09-30T13:03:22;19.00;99.90
18502;DHT22;68437;52.236;5.710;2023-09-30T13:05:49;19.00;99.90
18502;DHT22;68437;52.236;5.710;2023-09-30T13:08:16;18.90;99.90
18502;DHT22;68437;52.236;5.710;2023-09-30T13:10:43;18.90;99.90
18502;DHT22;68437;52.236;5.710;2023-09-30T13:13:11;18.90;99.90
18502;DHT22;68437;52.236;5.710;2023-09-30T13:15:39;18.80;99.90
18502;DHT22;68437;52.236;5.710;2023-09-30T13:18:07;18.90;99.90
18502;DHT22;68437;52.236;5.710;2023-09-30T13:20:33;19.00;99.90
18502;DHT22;68437;52.236;5.710;2023-09-30T13:23:00;19.10;99.90
18502;DHT22;68437;52.236;5.710;2023-09-30T13:25:28;19.20;99.90
18502;DHT22;68437;52.236;5.710;2023-09-30T13:27:55;19.30;99.90
18502;DHT22;68437;52.236;5.710;2023-09-30T13:30:22;19.30;99.90
18502;DHT22;68437;52.236;5.710;2023-09-30T13:32:50;19.20;99.90
18502;DHT22;68437;52.236;5.710;2023-09-30T13:35:17;19.30;99.90
18502;DHT22;68437;52.236;5.710;2023-09-30T13:37:44;19.30;99.90
18502;DHT22;68437;52.236;5.710;2023-09-30T13:40:12;19.40;99.90
18502;DHT22;68437;52.236;5.710;2023-09-30T13:42:39;19.40;99.90
18502;DHT22;68437;52.236;5.710;2023-09-30T13:45:07;19.40;99.90
18502;DHT22;68437;52.236;5.710;2023-09-30T13:47:35;19.60;99.90
18502;DHT22;68437;52.236;5.710;2023-09-30T13:50:04;19.90;99.90
18502;DHT22;68437;52.236;5.710;2023-09-30T13:52:33;20.20;99.90
18502;DHT22;68437;52.236;5.710;2023-09-30T13:54:59;20.30;99.90
18502;DHT22;68437;52.236;5.710;2023-09-30T13:57:27;20.30;99.90
18502;DHT22;68437;52.236;5.710;2023-09-30T13:59:54;20.40;99.90
18502;DHT22;68437;52.236;5.710;2023-09-30T14:02:21;20.40;99.90
18502;DHT22;68437;52.236;5.710;2023-09-30T14:04:48;20.30;99.90
18502;DHT22;68437;52.236;5.710;2023-09-30T14:07:16;20.20;99.90
18502;DHT22;68437;52.236;5.710;2023-09-30T14:09:44;20.20;99.90
18502;DHT22;68437;52.236;5.710;2023-09-30T14:12:11;20.10;99.90
18502;DHT22;68437;52.236;5.710;2023-09-30T14:14:38;20.00;99.90
18502;DHT22;68437;52.236;5.710;2023-09-30T14:17:05;19.80;99.90
18502;DHT22;68437;52.236;5.710;2023-09-30T14:19:35;19.80;99.90
18502;DHT22;68437;52.236;5.710;2023-09-30T14:22:03;19.70;99.90
18502;DHT22;68437;52.236;5.710;2023-09-30T14:24:32;19.80;99.90
18502;DHT22;68437;52.236;5.710;2023-09-30T14:26:59;19.70;99.90
18502;DHT22;68437;52.236;5.710;2023-09-30T14:29:26;19.60;99.90
18502;DHT22;68437;52.236;5.710;2023-09-30T14:31:53;19.50;99.90
18502;DHT22;68437;52.236;5.710;2023-09-30T14:34:20;19.50;99.90
18502;DHT22;68437;52.236;5.710;2023-09-30T14:36:47;19.50;99.90
18502;DHT22;68437;52.236;5.710;2023-09-30T14:39:14;19.40;99.90
18502;DHT22;68437;52.236;5.710;2023-09-30T14:41:43;19.30;99.90
18502;DHT22;68437;52.236;5.710;2023-09-30T14:44:10;19.30;99.90
18502;DHT22;68437;52.236;5.710;2023-09-30T14:46:37;19.30;99.90
18502;DHT22;68437;52.236;5.710;2023-09-30T14:49:04;19.30;99.90
18502;DHT22;68437;52.236;5.710;2023-09-30T14:51:32;19.30;99.90
18502;DHT22;68437;52.236;5.710;2023-09-30T14:53:59;19.20;99.90
18502;DHT22;68437;52.236;5.710;2023-09-30T14:56:26;19.20;99.90
18502;DHT22;68437;52.236;5.710;2023-09-30T14:58:54;19.10;99.90
18502;DHT22;68437;52.236;5.710;2023-09-30T15:01:21;19.10;99.90
18502;DHT22;68437;52.236;5.710;2023-09-30T15:03:49;19.10;99.90
18502;DHT22;68437;52.236;5.710;2023-09-30T15:06:16;19.10;99.90
18502;DHT22;68437;52.236;5.710;2023-09-30T15:08:43;19.00;99.90
18502;DHT22;68437;52.236;5.710;2023-09-30T15:11:13;19.00;99.90
18502;DHT22;68437;52.236;5.710;2023-09-30T15:13:40;19.00;99.90
18502;DHT22;68437;52.236;5.710;2023-09-30T15:16:16;19.00;99.90
18502;DHT22;68437;52.236;5.710;2023-09-30T15:18:44;19.00;99.90
18502;DHT22;68437;52.236;5.710;2023-09-30T15:21:11;19.00;99.90
18502;DHT22;68437;52.236;5.710;2023-09-30T15:23:38;18.90;99.90
18502;DHT22;68437;52.236;5.710;2023-09-30T15:26:04;18.80;99.90
18502;DHT22;68437;52.236;5.710;2023-09-30T15:28:31;18.80;99.90
18502;DHT22;68437;52.236;5.710;2023-09-30T15:30:58;18.80;99.90
18502;DHT22;68437;52.236;5.710;2023-09-30T15:33:28;18.80;99.90
18502;DHT22;68437;52.236;5.710;2023-09-30T15:35:55;18.70;99.90
18502;DHT22;68437;52.236;5.710;2023-09-30T15:38:22;18.70;99.90
18502;DHT22;68437;52.236;5.710;2023-09-30T15:40:54;18.70;99.90